createdAt,value
2017-08-03T00:00:47.712Z,17.5
2017-08-03T00:01:55.195Z,17.4
2017-08-03T00:03:02.680Z,17.4
2017-08-03T00:04:10.160Z,17.4
2017-08-03T00:05:17.357Z,17.5
2017-08-03T00:06:25.146Z,17.5
2017-08-03T00:07:32.650Z,17.4
2017-08-03T00:08:40.129Z,17.4
2017-08-03T00:09:47.616Z,17.4
2017-08-03T00:10:55.102Z,17.4
2017-08-03T00:12:02.876Z,17.4
2017-08-03T00:13:10.357Z,17.4
2017-08-03T00:14:17.510Z,17.4
2017-08-03T00:15:24.991Z,17.4
2017-08-03T00:16:32.467Z,17.4
2017-08-03T00:17:40.247Z,17.4
2017-08-03T00:18:47.728Z,17.4
2017-08-03T00:19:55.216Z,17.4
2017-08-03T00:21:02.370Z,17.4
2017-08-03T00:22:09.851Z,17.4
2017-08-03T00:23:17.657Z,17.4
2017-08-03T00:24:25.173Z,17.3
2017-08-03T00:25:32.655Z,17.3
2017-08-03T00:26:40.165Z,17.3
2017-08-03T00:27:47.647Z,17.3
2017-08-03T00:28:55.430Z,17.3
2017-08-03T00:30:02.906Z,17.3
2017-08-03T00:31:10.390Z,17.3
2017-08-03T00:32:17.868Z,17.3
2017-08-03T00:33:24.695Z,17.3
2017-08-03T00:34:32.475Z,17.3
2017-08-03T00:35:39.958Z,17.3
2017-08-03T00:36:47.437Z,17.3
2017-08-03T00:37:54.603Z,17.3
2017-08-03T00:39:02.089Z,17.3
2017-08-03T00:40:09.873Z,17.3
2017-08-03T00:41:17.360Z,17.3
2017-08-03T00:42:24.848Z,17.3
2017-08-03T00:43:32.325Z,17.3
2017-08-03T00:44:39.807Z,17.3
2017-08-03T00:45:47.598Z,17.3
2017-08-03T00:46:55.080Z,17.3
2017-08-03T00:48:02.566Z,17.3
2017-08-03T00:49:10.050Z,17.3
2017-08-03T00:50:17.207Z,17.3
2017-08-03T00:51:24.657Z,17.3
2017-08-03T00:52:32.138Z,17.2
2017-08-03T00:53:39.617Z,17.2
2017-08-03T00:54:47.100Z,17.2
2017-08-03T00:55:54.594Z,17.2
2017-08-03T00:57:02.039Z,17.2
2017-08-03T00:58:09.520Z,17.3
2017-08-03T00:59:16.677Z,17.3
2017-08-03T01:00:24.159Z,17.3
2017-08-03T01:01:31.637Z,17.3
2017-08-03T01:02:39.436Z,17.3
2017-08-03T01:03:46.596Z,17.3
2017-08-03T01:04:54.881Z,17.3
2017-08-03T01:06:02.368Z,17.3
2017-08-03T01:07:09.843Z,17.3
2017-08-03T01:08:17.634Z,17.3
2017-08-03T01:09:25.122Z,17.3
2017-08-03T01:10:32.602Z,17.3
2017-08-03T01:11:40.138Z,17.3
2017-08-03T01:12:47.303Z,17.3
2017-08-03T01:13:54.764Z,17.3
2017-08-03T01:15:02.250Z,17.3
2017-08-03T01:16:09.733Z,17.3
2017-08-03T01:17:16.886Z,17.3
2017-08-03T01:18:24.366Z,17.4
2017-08-03T01:19:32.164Z,17.3
2017-08-03T01:20:39.646Z,17.3
2017-08-03T01:21:46.813Z,17.3
2017-08-03T01:22:53.969Z,17.3
2017-08-03T01:24:01.449Z,17.3
2017-08-03T01:25:09.237Z,17.3
2017-08-03T01:26:31.301Z,17.3
2017-08-03T01:27:38.781Z,17.3
2017-08-03T01:28:46.265Z,17.3
2017-08-03T01:29:53.748Z,17.3
2017-08-03T01:31:01.537Z,17.3
2017-08-03T01:32:09.018Z,17.3
2017-08-03T01:33:16.500Z,17.3
2017-08-03T01:34:23.986Z,17.3
2017-08-03T01:35:31.133Z,17.4
2017-08-03T01:36:38.933Z,17.3
2017-08-03T01:37:46.434Z,17.4
2017-08-03T01:38:53.911Z,17.4
2017-08-03T01:40:01.396Z,17.4
2017-08-03T01:41:08.870Z,17.4
2017-08-03T01:42:15.984Z,17.4
2017-08-03T01:43:23.465Z,17.4
2017-08-03T01:44:30.621Z,17.4
2017-08-03T01:45:37.762Z,17.4
2017-08-03T01:46:44.918Z,17.4
2017-08-03T01:47:52.696Z,17.4
2017-08-03T01:49:00.175Z,17.4
2017-08-03T01:50:07.662Z,17.4
2017-08-03T01:51:15.142Z,17.3
2017-08-03T01:52:22.626Z,17.3
2017-08-03T01:53:30.419Z,17.3
2017-08-03T01:54:37.907Z,17.3
2017-08-03T01:55:45.073Z,17.3
2017-08-03T01:56:52.563Z,17.3
2017-08-03T01:58:00.047Z,17.3
2017-08-03T01:59:07.858Z,17.3
2017-08-03T02:00:15.342Z,17.3
2017-08-03T02:01:22.828Z,17.3
2017-08-03T02:02:30.306Z,17.3
2017-08-03T02:03:37.789Z,17.3
2017-08-03T02:04:45.234Z,17.3
2017-08-03T02:05:52.717Z,17.2
2017-08-03T02:06:59.869Z,17.2
2017-08-03T02:08:07.355Z,17.3
2017-08-03T02:09:14.841Z,17.3
2017-08-03T02:10:22.638Z,17.3
2017-08-03T02:11:29.795Z,17.3
2017-08-03T02:12:36.608Z,17.4
2017-08-03T02:13:44.087Z,17.4
2017-08-03T02:14:51.564Z,17.4
2017-08-03T02:15:59.348Z,17.4
2017-08-03T02:17:06.828Z,17.4
2017-08-03T02:18:14.306Z,17.4
2017-08-03T02:19:21.792Z,17.4
2017-08-03T02:20:29.272Z,17.4
2017-08-03T02:21:37.053Z,17.4
2017-08-03T02:22:44.533Z,17.4
2017-08-03T02:23:51.676Z,17.4
2017-08-03T02:24:58.835Z,17.4
2017-08-03T02:26:06.323Z,17.3
2017-08-03T02:27:14.120Z,17.3
2017-08-03T02:28:21.613Z,17.3
2017-08-03T02:29:29.091Z,17.3
2017-08-03T02:30:36.585Z,17.3
2017-08-03T02:31:44.065Z,17.3
2017-08-03T02:32:51.849Z,17.3
2017-08-03T02:33:59.326Z,17.3
2017-08-03T02:35:06.815Z,17.3
2017-08-03T02:36:14.290Z,17.3
2017-08-03T02:37:36.350Z,17.3
2017-08-03T02:38:43.807Z,17.3
2017-08-03T02:39:51.291Z,17.3
2017-08-03T02:40:58.441Z,17.3
2017-08-03T02:42:05.956Z,17.3
2017-08-03T02:43:13.113Z,17.3
2017-08-03T02:44:20.904Z,17.2
2017-08-03T02:45:28.383Z,17.2
2017-08-03T02:46:35.865Z,17.2
2017-08-03T02:47:43.012Z,17.2
2017-08-03T02:48:50.495Z,17.2
2017-08-03T02:49:58.289Z,17.2
2017-08-03T02:51:05.775Z,17.2
2017-08-03T02:52:13.257Z,17.2
2017-08-03T02:53:20.730Z,17.2
2017-08-03T02:54:27.885Z,17.2
2017-08-03T02:55:35.669Z,17.2
2017-08-03T02:56:43.151Z,17.2
2017-08-03T02:57:50.300Z,17.1
2017-08-03T02:58:57.782Z,17.1
2017-08-03T03:00:05.272Z,17.1
2017-08-03T03:01:13.634Z,17.1
2017-08-03T03:02:21.111Z,17.1
2017-08-03T03:03:28.588Z,17.1
2017-08-03T03:04:36.098Z,17.1
2017-08-03T03:05:43.584Z,17.1
2017-08-03T03:06:51.367Z,17.1
2017-08-03T03:07:58.844Z,17.1
2017-08-03T03:09:06.341Z,17.1
2017-08-03T03:10:13.819Z,17.1
2017-08-03T03:11:21.295Z,17.1
2017-08-03T03:12:29.122Z,17
2017-08-03T03:13:36.604Z,17
2017-08-03T03:14:44.090Z,17
2017-08-03T03:15:51.241Z,17
2017-08-03T03:16:58.725Z,17
2017-08-03T03:18:06.518Z,17
2017-08-03T03:19:13.344Z,17
2017-08-03T03:20:20.512Z,17
2017-08-03T03:21:27.668Z,17
2017-08-03T03:22:35.149Z,17
2017-08-03T03:23:42.645Z,17
2017-08-03T03:24:49.801Z,17
2017-08-03T03:25:57.294Z,17
2017-08-03T03:27:04.768Z,17
2017-08-03T03:28:11.920Z,17
2017-08-03T03:29:19.374Z,17
2017-08-03T03:30:26.531Z,17
2017-08-03T03:31:34.010Z,17
2017-08-03T03:32:41.493Z,17
2017-08-03T03:33:48.979Z,17
2017-08-03T03:34:56.757Z,17
2017-08-03T03:36:04.235Z,17
2017-08-03T03:37:11.717Z,17
2017-08-03T03:38:19.207Z,16.9
2017-08-03T03:39:26.705Z,16.9
2017-08-03T03:40:34.205Z,16.9
2017-08-03T03:41:41.697Z,16.9
2017-08-03T03:42:48.856Z,16.9
2017-08-03T03:43:56.340Z,16.9
2017-08-03T03:45:03.819Z,16.9
2017-08-03T03:46:11.604Z,16.9
2017-08-03T03:47:19.084Z,16.9
2017-08-03T03:48:26.568Z,16.9
2017-08-03T03:49:34.059Z,16.9
2017-08-03T03:50:41.550Z,16.9
2017-08-03T03:51:49.413Z,16.9
2017-08-03T03:52:56.899Z,17
2017-08-03T03:54:04.376Z,17
2017-08-03T03:55:11.862Z,17
2017-08-03T03:56:19.347Z,17
2017-08-03T03:57:27.135Z,17
2017-08-03T03:58:34.621Z,17
2017-08-03T03:59:41.778Z,17
2017-08-03T04:00:49.263Z,17
2017-08-03T04:01:56.743Z,17
2017-08-03T04:03:04.235Z,17
2017-08-03T04:04:11.717Z,17
2017-08-03T04:05:18.870Z,17
2017-08-03T04:06:26.352Z,17
2017-08-03T04:07:33.811Z,17.1
2017-08-03T04:08:41.307Z,17.1
2017-08-03T04:09:48.790Z,17.1
2017-08-03T04:10:56.267Z,17.1
2017-08-03T04:12:03.764Z,17.1
2017-08-03T04:13:11.544Z,17.1
2017-08-03T04:14:19.025Z,17.1
2017-08-03T04:15:26.198Z,17.2
2017-08-03T04:16:33.683Z,17.2
2017-08-03T04:17:41.158Z,17.2
2017-08-03T04:18:48.989Z,17.2
2017-08-03T04:19:56.465Z,17.2
2017-08-03T04:21:03.943Z,17.2
2017-08-03T04:22:11.425Z,17.2
2017-08-03T04:23:18.904Z,17.3
2017-08-03T04:24:26.361Z,17.3
2017-08-03T04:25:33.844Z,17.3
2017-08-03T04:26:41.327Z,17.3
2017-08-03T04:27:48.820Z,17.3
2017-08-03T04:28:56.316Z,17.4
2017-08-03T04:30:04.091Z,17.4
2017-08-03T04:31:11.575Z,17.3
2017-08-03T04:32:19.059Z,17.4
2017-08-03T04:33:26.539Z,17.4
2017-08-03T04:34:34.022Z,17.4
2017-08-03T04:35:41.853Z,17.5
2017-08-03T04:36:49.334Z,17.5
2017-08-03T04:37:56.815Z,17.5
2017-08-03T04:39:04.299Z,17.6
2017-08-03T04:40:11.785Z,17.6
2017-08-03T04:41:19.570Z,17.7
2017-08-03T04:42:27.048Z,17.7
2017-08-03T04:43:35.368Z,17.7
2017-08-03T04:44:42.851Z,17.7
2017-08-03T04:45:50.326Z,17.7
2017-08-03T04:46:58.110Z,17.7
2017-08-03T04:48:05.255Z,17.7
2017-08-03T04:49:12.736Z,17.7
2017-08-03T04:50:20.219Z,17.6
2017-08-03T04:51:27.696Z,17.6
2017-08-03T04:52:35.523Z,17.6
2017-08-03T04:53:43.004Z,17.7
2017-08-03T04:54:50.486Z,17.6
2017-08-03T04:55:57.644Z,17.6
2017-08-03T04:57:05.120Z,17.6
2017-08-03T04:58:12.898Z,17.6
2017-08-03T04:59:20.422Z,17.6
2017-08-03T05:00:27.906Z,17.7
2017-08-03T05:01:35.402Z,17.6
2017-08-03T05:02:42.554Z,17.7
2017-08-03T05:03:50.044Z,17.7
2017-08-03T05:04:57.530Z,17.8
2017-08-03T05:06:05.005Z,17.8
2017-08-03T05:07:12.490Z,17.9
2017-08-03T05:08:19.647Z,17.9
2017-08-03T05:09:27.428Z,18
2017-08-03T05:10:34.911Z,17.9
2017-08-03T05:11:42.396Z,17.9
2017-08-03T05:12:49.511Z,17.9
2017-08-03T05:13:56.998Z,18
2017-08-03T05:15:04.781Z,18
2017-08-03T05:16:12.271Z,18
2017-08-03T05:17:19.754Z,18
2017-08-03T05:18:26.905Z,18
2017-08-03T05:19:34.385Z,18.1
2017-08-03T05:20:42.167Z,18.2
2017-08-03T05:21:49.661Z,18.2
2017-08-03T05:22:57.160Z,18.2
2017-08-03T05:24:04.646Z,18.3
2017-08-03T05:25:12.114Z,18.4
2017-08-03T05:26:19.589Z,18.4
2017-08-03T05:27:27.066Z,18.4
2017-08-03T05:28:33.888Z,18.4
2017-08-03T05:29:41.049Z,18.3
2017-08-03T05:30:48.527Z,18.3
2017-08-03T05:31:56.307Z,18.3
2017-08-03T05:33:03.796Z,18.3
2017-08-03T05:34:10.944Z,18.3
2017-08-03T05:35:18.435Z,18.3
2017-08-03T05:36:25.918Z,18.3
2017-08-03T05:37:33.717Z,18.4
2017-08-03T05:38:40.898Z,18.4
2017-08-03T05:39:49.781Z,18.4
2017-08-03T05:40:57.248Z,18.5
2017-08-03T05:42:04.736Z,18.5
2017-08-03T05:43:12.229Z,18.6
2017-08-03T05:44:19.389Z,18.6
2017-08-03T05:45:26.872Z,18.6
2017-08-03T05:46:34.360Z,18.7
2017-08-03T05:47:41.841Z,18.7
2017-08-03T05:48:49.622Z,18.7
2017-08-03T05:49:56.773Z,18.7
2017-08-03T05:51:04.260Z,18.7
2017-08-03T05:52:11.744Z,18.8
2017-08-03T05:53:18.893Z,18.8
2017-08-03T05:54:26.680Z,18.8
2017-08-03T05:55:34.155Z,18.8
2017-08-03T05:56:41.654Z,18.7
2017-08-03T05:57:48.811Z,18.7
2017-08-03T05:58:56.324Z,18.7
2017-08-03T06:00:04.111Z,18.7
2017-08-03T06:01:11.256Z,18.6
2017-08-03T06:02:18.743Z,18.6
2017-08-03T06:03:26.227Z,18.6
2017-08-03T06:04:33.711Z,18.6
2017-08-03T06:05:41.193Z,18.6
2017-08-03T06:06:48.678Z,18.5
2017-08-03T06:07:56.160Z,18.5
2017-08-03T06:09:03.656Z,18.5
2017-08-03T06:10:11.142Z,18.4
2017-08-03T06:11:18.922Z,18.4
2017-08-03T06:12:26.083Z,18.4
2017-08-03T06:13:33.236Z,18.4
2017-08-03T06:14:40.714Z,18.4
2017-08-03T06:15:48.202Z,18.3
2017-08-03T06:16:55.648Z,18.3
2017-08-03T06:18:03.146Z,18.3
2017-08-03T06:19:10.630Z,18.4
2017-08-03T06:20:18.129Z,18.4
2017-08-03T06:21:25.618Z,18.4
2017-08-03T06:22:33.114Z,18.4
2017-08-03T06:23:40.599Z,18.5
2017-08-03T06:24:48.077Z,18.5
2017-08-03T06:25:55.556Z,18.5
2017-08-03T06:27:03.041Z,18.5
2017-08-03T06:28:10.825Z,18.5
2017-08-03T06:29:18.309Z,18.5
2017-08-03T06:30:25.784Z,18.6
2017-08-03T06:31:33.263Z,18.6
2017-08-03T06:32:40.750Z,18.6
2017-08-03T06:33:48.533Z,18.6
2017-08-03T06:34:56.021Z,18.7
2017-08-03T06:36:03.504Z,18.7
2017-08-03T06:37:10.980Z,18.8
2017-08-03T06:38:18.368Z,18.8
2017-08-03T06:39:25.825Z,18.8
2017-08-03T06:40:32.980Z,18.9
2017-08-03T06:41:40.475Z,18.9
2017-08-03T06:42:47.962Z,18.9
2017-08-03T06:43:55.442Z,18.9
2017-08-03T06:45:02.600Z,19
2017-08-03T06:46:10.301Z,19
2017-08-03T06:47:17.789Z,19
2017-08-03T06:48:25.267Z,19
2017-08-03T06:49:32.754Z,19
2017-08-03T06:50:40.530Z,19
2017-08-03T06:51:47.692Z,19
2017-08-03T06:52:55.175Z,19
2017-08-03T06:54:02.329Z,19
2017-08-03T06:55:09.816Z,19.1
2017-08-03T06:56:17.323Z,19.1
2017-08-03T06:57:24.808Z,19.1
2017-08-03T06:58:32.324Z,19.2
2017-08-03T06:59:39.805Z,19.2
2017-08-03T07:00:47.287Z,19.3
2017-08-03T07:01:55.141Z,19.3
2017-08-03T07:03:02.620Z,19.3
2017-08-03T07:04:09.770Z,19.3
2017-08-03T07:05:17.257Z,19.3
2017-08-03T07:06:24.827Z,19.3
2017-08-03T07:07:32.604Z,19.3
2017-08-03T07:08:40.085Z,19.2
2017-08-03T07:09:47.573Z,19.3
2017-08-03T07:10:54.725Z,19.3
2017-08-03T07:12:02.204Z,19.3
2017-08-03T07:13:10.048Z,19.3
2017-08-03T07:14:17.564Z,19.4
2017-08-03T07:15:25.279Z,19.4
2017-08-03T07:16:32.762Z,19.5
2017-08-03T07:17:40.246Z,19.5
2017-08-03T07:18:47.706Z,19.5
2017-08-03T07:19:55.187Z,19.5
2017-08-03T07:21:02.672Z,19.5
2017-08-03T07:22:09.842Z,19.5
2017-08-03T07:23:17.326Z,19.5
2017-08-03T07:24:25.157Z,19.5
2017-08-03T07:25:32.645Z,19.5
2017-08-03T07:26:40.139Z,19.5
2017-08-03T07:28:02.206Z,19.6
2017-08-03T07:29:09.693Z,19.6
2017-08-03T07:30:17.472Z,19.6
2017-08-03T07:31:24.959Z,19.6
2017-08-03T07:32:32.597Z,19.6
2017-08-03T07:33:40.093Z,19.6
2017-08-03T07:34:47.606Z,19.7
2017-08-03T07:35:55.399Z,19.6
2017-08-03T07:37:02.869Z,19.6
2017-08-03T07:38:10.367Z,19.7
2017-08-03T07:39:17.854Z,19.7
2017-08-03T07:40:25.339Z,19.7
2017-08-03T07:41:33.172Z,19.7
2017-08-03T07:42:40.667Z,19.8
2017-08-03T07:43:47.816Z,19.8
2017-08-03T07:44:55.296Z,19.9
2017-08-03T07:46:02.803Z,19.9
2017-08-03T07:47:10.586Z,19.9
2017-08-03T07:48:18.068Z,19.9
2017-08-03T07:49:25.554Z,19.9
2017-08-03T07:50:33.038Z,19.9
2017-08-03T07:51:40.677Z,19.9
2017-08-03T07:52:48.509Z,19.9
2017-08-03T07:53:55.341Z,20
2017-08-03T07:55:02.829Z,20
2017-08-03T07:56:10.315Z,20
2017-08-03T07:57:17.799Z,20
2017-08-03T07:58:25.578Z,20
2017-08-03T07:59:33.068Z,20
2017-08-03T08:00:40.555Z,20
2017-08-03T08:01:48.046Z,20
2017-08-03T08:02:55.529Z,20.1
2017-08-03T08:04:03.318Z,20.2
2017-08-03T08:05:10.459Z,20.2
2017-08-03T08:06:17.942Z,20.2
2017-08-03T08:07:25.438Z,20.3
2017-08-03T08:08:32.608Z,20.3
2017-08-03T08:09:40.391Z,20.3
2017-08-03T08:10:47.875Z,20.4
2017-08-03T08:11:55.030Z,20.4
2017-08-03T08:13:02.517Z,20.4
2017-08-03T08:14:09.684Z,20.4
2017-08-03T08:15:17.524Z,20.5
2017-08-03T08:16:26.001Z,20.5
2017-08-03T08:17:33.487Z,20.5
2017-08-03T08:18:40.966Z,20.5
2017-08-03T08:19:48.122Z,20.5
2017-08-03T08:20:55.954Z,20.5
2017-08-03T08:22:03.444Z,20.5
2017-08-03T08:23:10.924Z,20.5
2017-08-03T08:24:18.398Z,20.5
2017-08-03T08:25:25.885Z,20.5
2017-08-03T08:26:33.674Z,20.5
2017-08-03T08:27:41.159Z,20.5
2017-08-03T08:28:48.732Z,20.6
2017-08-03T08:29:55.883Z,20.6
2017-08-03T08:31:03.368Z,20.6
2017-08-03T08:32:11.161Z,20.6
2017-08-03T08:33:33.197Z,20.7
2017-08-03T08:34:40.680Z,20.7
2017-08-03T08:35:48.167Z,20.7
2017-08-03T08:36:54.984Z,20.7
2017-08-03T08:38:02.821Z,20.7
2017-08-03T08:39:10.305Z,20.7
2017-08-03T08:40:17.794Z,20.7
2017-08-03T08:41:25.275Z,20.7
2017-08-03T08:42:32.761Z,20.7
2017-08-03T08:43:40.590Z,20.6
2017-08-03T08:44:48.078Z,20.7
2017-08-03T08:45:55.563Z,20.6
2017-08-03T08:47:03.049Z,20.7
2017-08-03T08:48:10.395Z,20.6
2017-08-03T08:49:18.250Z,20.6
2017-08-03T08:50:25.737Z,20.6
2017-08-03T08:51:33.230Z,20.6
2017-08-03T08:52:40.390Z,20.7
2017-08-03T08:53:47.903Z,20.8
2017-08-03T08:54:55.709Z,20.8
2017-08-03T08:56:03.197Z,20.8
2017-08-03T08:57:10.685Z,20.8
2017-08-03T08:58:18.165Z,20.8
2017-08-03T08:59:25.313Z,20.8
2017-08-03T09:00:33.147Z,20.9
2017-08-03T09:01:40.635Z,20.9
2017-08-03T09:02:48.122Z,20.9
2017-08-03T09:03:55.614Z,21
2017-08-03T09:05:03.094Z,20.9
2017-08-03T09:06:10.926Z,21
2017-08-03T09:07:18.415Z,21
2017-08-03T09:08:25.574Z,21
2017-08-03T09:09:33.077Z,21.1
2017-08-03T09:10:40.568Z,21.1
2017-08-03T09:11:48.075Z,21.1
2017-08-03T09:12:55.564Z,21.1
2017-08-03T09:14:02.728Z,21.1
2017-08-03T09:15:10.205Z,21.2
2017-08-03T09:16:17.694Z,21.2
2017-08-03T09:17:25.524Z,21.2
2017-08-03T09:18:33.004Z,21.3
2017-08-03T09:19:40.488Z,21.3
2017-08-03T09:20:47.983Z,21.3
2017-08-03T09:21:55.462Z,21.3
2017-08-03T09:23:02.914Z,21.2
2017-08-03T09:24:10.397Z,21.2
2017-08-03T09:25:17.555Z,21.1
2017-08-03T09:26:25.049Z,21.1
2017-08-03T09:27:32.561Z,21.1
2017-08-03T09:28:40.065Z,21.1
2017-08-03T09:29:47.572Z,21.1
2017-08-03T09:30:55.070Z,21.1
2017-08-03T09:32:02.244Z,21.2
2017-08-03T09:33:09.747Z,21.1
2017-08-03T09:34:17.244Z,21.2
2017-08-03T09:35:24.391Z,21.2
2017-08-03T09:36:31.870Z,21.2
2017-08-03T09:37:39.351Z,21.3
2017-08-03T09:38:46.513Z,21.3
2017-08-03T09:39:54.353Z,21.2
2017-08-03T09:41:01.832Z,21.2
2017-08-03T09:42:09.318Z,21.2
2017-08-03T09:43:16.498Z,21.2
2017-08-03T09:44:23.979Z,21.3
2017-08-03T09:45:31.812Z,21.3
2017-08-03T09:46:39.866Z,21.4
2017-08-03T09:47:47.511Z,21.4
2017-08-03T09:48:54.675Z,21.4
2017-08-03T09:50:02.167Z,21.4
2017-08-03T09:51:10.008Z,21.5
2017-08-03T09:52:17.488Z,21.5
2017-08-03T09:53:24.978Z,21.5
2017-08-03T09:54:31.813Z,21.5
2017-08-03T09:55:39.307Z,21.5
2017-08-03T09:56:46.789Z,21.5
2017-08-03T09:57:54.281Z,21.4
2017-08-03T09:59:01.773Z,21.4
2017-08-03T10:00:09.562Z,21.4
2017-08-03T10:01:17.047Z,21.4
2017-08-03T10:02:24.534Z,21.5
2017-08-03T10:03:32.025Z,21.5
2017-08-03T10:04:38.852Z,21.5
2017-08-03T10:05:46.649Z,21.6
2017-08-03T10:06:54.135Z,21.6
2017-08-03T10:08:01.620Z,21.5
2017-08-03T10:09:09.101Z,21.5
2017-08-03T10:10:16.780Z,21.6
2017-08-03T10:11:24.566Z,21.6
2017-08-03T10:12:32.069Z,21.7
2017-08-03T10:13:39.565Z,21.7
2017-08-03T10:14:47.049Z,21.9
2017-08-03T10:15:53.886Z,22
2017-08-03T10:17:01.720Z,22.2
2017-08-03T10:18:09.208Z,22.3
2017-08-03T10:19:16.691Z,22.3
2017-08-03T10:20:24.174Z,22.4
2017-08-03T10:21:31.325Z,22.6
2017-08-03T10:22:39.152Z,22.7
2017-08-03T10:23:46.631Z,22.8
2017-08-03T10:24:53.790Z,23
2017-08-03T10:26:01.288Z,23.1
2017-08-03T10:27:08.674Z,23.2
2017-08-03T10:28:16.518Z,23.3
2017-08-03T10:29:23.339Z,23.4
2017-08-03T10:30:30.500Z,23.5
2017-08-03T10:31:37.703Z,23.7
2017-08-03T10:32:44.852Z,23.7
2017-08-03T10:33:52.369Z,23.8
2017-08-03T10:34:59.851Z,23.9
2017-08-03T10:36:07.341Z,23.9
2017-08-03T10:37:14.820Z,23.8
2017-08-03T10:38:21.967Z,23.6
2017-08-03T10:39:29.418Z,23.5
2017-08-03T10:40:36.899Z,23.4
2017-08-03T10:41:44.382Z,23.2
2017-08-03T10:42:51.868Z,23.1
2017-08-03T10:43:59.353Z,22.9
2017-08-03T10:45:07.144Z,22.8
2017-08-03T10:46:14.630Z,22.8
2017-08-03T10:47:22.131Z,22.7
2017-08-03T10:48:29.302Z,22.7
2017-08-03T10:49:36.793Z,22.6
2017-08-03T10:50:44.341Z,22.6
2017-08-03T10:51:51.849Z,22.5
2017-08-03T10:52:59.364Z,22.5
2017-08-03T10:54:06.857Z,22.5
2017-08-03T10:55:14.344Z,22.5
2017-08-03T10:56:21.847Z,22.6
2017-08-03T10:57:29.334Z,22.6
2017-08-03T10:58:36.494Z,22.7
2017-08-03T10:59:43.981Z,22.8
2017-08-03T11:00:51.485Z,22.8
2017-08-03T11:01:59.311Z,22.9
2017-08-03T11:03:06.802Z,23
2017-08-03T11:04:13.964Z,23.1
2017-08-03T11:05:21.120Z,23.2
2017-08-03T11:06:28.599Z,23.3
2017-08-03T11:07:36.594Z,23.3
2017-08-03T11:08:43.745Z,23.3
2017-08-03T11:09:50.905Z,23.3
2017-08-03T11:10:58.394Z,23.3
2017-08-03T11:12:05.888Z,23.3
2017-08-03T11:13:13.337Z,23.3
2017-08-03T11:14:20.816Z,23.4
2017-08-03T11:15:27.966Z,23.4
2017-08-03T11:16:35.464Z,23.5
2017-08-03T11:17:42.622Z,23.7
2017-08-03T11:18:49.782Z,23.8
2017-08-03T11:19:56.944Z,23.8
2017-08-03T11:21:04.433Z,23.8
2017-08-03T11:22:11.922Z,23.9
2017-08-03T11:23:19.709Z,23.9
2017-08-03T11:24:27.195Z,24.1
2017-08-03T11:25:34.940Z,23.9
2017-08-03T11:26:42.428Z,24
2017-08-03T11:27:49.580Z,24
2017-08-03T11:28:57.377Z,24.1
2017-08-03T11:30:04.867Z,24.2
2017-08-03T11:31:12.446Z,24.1
2017-08-03T11:32:19.960Z,24
2017-08-03T11:33:27.451Z,24
2017-08-03T11:34:35.242Z,24.1
2017-08-03T11:35:42.731Z,24.1
2017-08-03T11:36:50.121Z,24.2
2017-08-03T11:37:57.278Z,24.3
2017-08-03T11:39:04.766Z,24.3
2017-08-03T11:40:12.555Z,24.3
2017-08-03T11:41:19.713Z,24.3
2017-08-03T11:42:27.208Z,24.3
2017-08-03T11:43:34.696Z,24.3
2017-08-03T11:44:42.189Z,24.5
2017-08-03T11:45:49.722Z,24.6
2017-08-03T11:46:56.881Z,24.6
2017-08-03T11:48:04.374Z,24.6
2017-08-03T11:49:11.855Z,24.7
2017-08-03T11:50:19.046Z,24.7
2017-08-03T11:51:26.832Z,24.6
2017-08-03T11:52:34.309Z,24.6
2017-08-03T11:53:41.798Z,24.6
2017-08-03T11:54:48.957Z,24.6
2017-08-03T11:55:56.441Z,24.7
2017-08-03T11:57:03.907Z,24.8
2017-08-03T11:58:11.390Z,24.8
2017-08-03T11:59:18.546Z,24.7
2017-08-03T12:00:26.034Z,24.8
2017-08-03T12:01:33.522Z,24.8
2017-08-03T12:02:40.677Z,24.8
2017-08-03T12:03:48.167Z,24.7
2017-08-03T12:04:55.665Z,24.7
2017-08-03T12:06:03.153Z,24.7
2017-08-03T12:07:10.650Z,24.7
2017-08-03T12:08:18.441Z,24.7
2017-08-03T12:09:25.932Z,24.7
2017-08-03T12:10:33.094Z,24.8
2017-08-03T12:11:40.586Z,24.8
2017-08-03T12:12:47.735Z,24.8
2017-08-03T12:13:55.524Z,24.9
2017-08-03T12:15:02.354Z,24.8
2017-08-03T12:16:09.853Z,24.8
2017-08-03T12:17:17.339Z,24.9
2017-08-03T12:18:24.499Z,25
2017-08-03T12:19:31.963Z,25.1
2017-08-03T12:20:39.455Z,25.1
2017-08-03T12:21:46.948Z,25
2017-08-03T12:22:54.452Z,25
2017-08-03T12:24:01.591Z,25
2017-08-03T12:25:09.073Z,25.1
2017-08-03T12:26:16.565Z,25.2
2017-08-03T12:27:23.725Z,25.2
2017-08-03T12:28:31.246Z,25.1
2017-08-03T12:29:38.749Z,25.2
2017-08-03T12:30:46.375Z,25.2
2017-08-03T12:31:53.530Z,25.2
2017-08-03T12:33:01.018Z,25.2
2017-08-03T12:34:08.179Z,25.2
2017-08-03T12:35:15.658Z,25.2
2017-08-03T12:36:22.905Z,25.2
2017-08-03T12:37:30.394Z,25.1
2017-08-03T12:38:37.882Z,25.2
2017-08-03T12:39:45.366Z,25.2
2017-08-03T12:40:52.520Z,25.1
2017-08-03T12:42:00.108Z,25.1
2017-08-03T12:43:07.592Z,25.1
2017-08-03T12:44:15.084Z,25.1
2017-08-03T12:45:22.573Z,25.2
2017-08-03T12:46:30.060Z,25.2
2017-08-03T12:47:37.655Z,25.3
2017-08-03T12:48:45.140Z,25.2
2017-08-03T12:49:52.636Z,25.2
2017-08-03T12:51:00.144Z,25.3
2017-08-03T12:52:07.635Z,25.3
2017-08-03T12:53:15.424Z,25.4
2017-08-03T12:54:22.930Z,25.4
2017-08-03T12:55:30.415Z,25.3
2017-08-03T12:56:37.915Z,25.4
2017-08-03T12:57:45.400Z,25.3
2017-08-03T12:58:52.812Z,25.4
2017-08-03T13:00:00.306Z,25.4
2017-08-03T13:01:07.788Z,25.6
2017-08-03T13:02:14.959Z,25.7
2017-08-03T13:03:22.104Z,25.8
2017-08-03T13:04:29.261Z,26
2017-08-03T13:05:36.748Z,26
2017-08-03T13:06:44.243Z,26
2017-08-03T13:07:51.407Z,26
2017-08-03T13:08:58.891Z,26.2
2017-08-03T13:10:05.997Z,26.4
2017-08-03T13:11:13.497Z,26.4
2017-08-03T13:12:21.004Z,26.4
2017-08-03T13:13:28.494Z,26.4
2017-08-03T13:14:35.980Z,26.3
2017-08-03T13:15:43.080Z,26.3
2017-08-03T13:16:50.574Z,26.5
2017-08-03T13:17:57.730Z,26.7
2017-08-03T13:19:05.212Z,26.9
2017-08-03T13:20:12.716Z,27.3
2017-08-03T13:21:20.189Z,27.6
2017-08-03T13:22:27.679Z,27.9
2017-08-03T13:23:34.830Z,28.1
2017-08-03T13:24:42.315Z,28
2017-08-03T13:25:49.811Z,28.1
2017-08-03T13:26:57.292Z,27.9
2017-08-03T13:28:04.785Z,27.8
2017-08-03T13:29:11.952Z,27.6
2017-08-03T13:30:19.137Z,27.5
2017-08-03T13:31:26.607Z,27.8
2017-08-03T13:32:34.109Z,28.3
2017-08-03T13:33:40.949Z,28.5
2017-08-03T13:34:48.433Z,28.6
2017-08-03T13:35:55.616Z,28.6
2017-08-03T13:37:03.410Z,28.3
2017-08-03T13:38:10.897Z,27.9
2017-08-03T13:39:18.387Z,27.6
2017-08-03T13:40:25.875Z,27.9
2017-08-03T13:41:33.366Z,28.2
2017-08-03T13:42:41.152Z,28.1
2017-08-03T13:43:48.638Z,28.2
2017-08-03T13:44:55.806Z,28.2
2017-08-03T13:46:03.299Z,28.3
2017-08-03T13:47:10.465Z,28.6
2017-08-03T13:48:17.725Z,28.6
2017-08-03T13:49:25.160Z,28.4
2017-08-03T13:50:32.658Z,28.3
2017-08-03T13:51:39.822Z,28.5
2017-08-03T13:52:47.326Z,28.6
2017-08-03T13:53:54.484Z,29
2017-08-03T13:55:01.976Z,29.1
2017-08-03T13:56:09.464Z,29.2
2017-08-03T13:57:16.951Z,29
2017-08-03T13:58:24.114Z,28.9
2017-08-03T13:59:31.907Z,29.1
2017-08-03T14:00:39.064Z,29.1
2017-08-03T14:01:46.632Z,28.8
2017-08-03T14:02:54.111Z,28.7
2017-08-03T14:04:01.607Z,28.8
2017-08-03T14:05:09.201Z,28.9
2017-08-03T14:06:16.686Z,29.1
2017-08-03T14:07:24.183Z,29.6
2017-08-03T14:08:31.675Z,30.1
2017-08-03T14:09:39.174Z,30.2
2017-08-03T14:10:46.922Z,30.1
2017-08-03T14:11:54.084Z,29.8
2017-08-03T14:13:01.608Z,29.4
2017-08-03T14:14:08.982Z,29.2
2017-08-03T14:15:16.469Z,29.1
2017-08-03T14:16:24.075Z,29
2017-08-03T14:17:31.564Z,28.8
2017-08-03T14:18:39.061Z,28.7
2017-08-03T14:19:46.564Z,28.4
2017-08-03T14:20:54.049Z,28.1
2017-08-03T14:22:01.644Z,27.8
2017-08-03T14:23:08.808Z,27.8
2017-08-03T14:24:16.302Z,28
2017-08-03T14:25:23.797Z,28.1
2017-08-03T14:26:31.283Z,28.1
2017-08-03T14:27:39.022Z,28.1
2017-08-03T14:28:46.186Z,28.1
2017-08-03T14:29:53.341Z,28.2
2017-08-03T14:31:00.837Z,28.3
2017-08-03T14:32:08.345Z,28.6
2017-08-03T14:33:15.958Z,29.1
2017-08-03T14:34:23.466Z,29.2
2017-08-03T14:35:30.632Z,29.3
2017-08-03T14:36:38.124Z,29
2017-08-03T14:37:45.616Z,28.6
2017-08-03T14:38:53.075Z,28.3
2017-08-03T14:40:00.570Z,28
2017-08-03T14:41:08.058Z,27.9
2017-08-03T14:42:15.226Z,27.8
2017-08-03T14:43:22.717Z,27.8
2017-08-03T14:44:30.510Z,27.9
2017-08-03T14:45:37.680Z,28
2017-08-03T14:46:44.846Z,28.1
2017-08-03T14:47:52.331Z,28.3
2017-08-03T14:48:59.823Z,28.2
2017-08-03T14:50:07.404Z,27.9
2017-08-03T14:51:14.906Z,28.2
2017-08-03T14:52:22.630Z,28.3
2017-08-03T14:53:29.822Z,28.1
2017-08-03T14:54:37.004Z,28
2017-08-03T14:55:44.610Z,28
2017-08-03T14:56:52.095Z,27.9
2017-08-03T14:57:59.579Z,28
2017-08-03T14:59:07.065Z,28.3
2017-08-03T15:00:14.556Z,28.4
2017-08-03T15:01:21.964Z,28.6
2017-08-03T15:02:29.452Z,28.3
2017-08-03T15:03:36.935Z,28.5
2017-08-03T15:04:44.418Z,28.6
2017-08-03T15:05:51.582Z,28.6